aviador You're here:

LHBP Decoded Metar

BUDAPEST in HUNGARY
Report Time2018-06-23 12:00:00
UTC Time2018-06-23 12:15:26
Flight Rules vfr VFR
Wind300° at 14 kt
W.Decomp.*RWY 31: 13.6 kt HW 3.4 kt LCW
W.Rank300° ranks 1
Current wind is above 300° avg. (10.7)
Visibility9999 m
Phenomena:N/A
Clouds:N/A
Expected CloudBase > 5,600 ft AGL from Temp-Dew spread
CeilingNone
Temp20°C (ISA +6)
Dew Point06°C (40% RH)
AAT14.0°C
QNH1018 hPa
Density Alt1,296 ft
Elevation607 ft
Report Wrong Elevation
Raw Report
LHBP 231200Z 30014KT 260V330 CAVOK 20/06 Q1018 NOSIG=

Extra information for LHBP:More info

Metar Taf Metar & Taf Last 4 Metars F.Rules Stats Wind Profile Meteogram Temp Stats Airport Information Weather charts Add Link Nearby VenuesMetar ALERT Operation Metar Decoded Social comments